sensor_id;sensor_type;location;lat;lon;timestamp;temperature;humidity
69598;SHT31;70000;51.176;-115.568;2023-05-10T00:00:03;29.59;27.33
69598;SHT31;70000;51.176;-115.568;2023-05-10T00:02:33;29.10;27.02
69598;SHT31;70000;51.176;-115.568;2023-05-10T00:05:02;28.75;27.68
69598;SHT31;70000;51.176;-115.568;2023-05-10T00:07:32;29.13;27.86
69598;SHT31;70000;51.176;-115.568;2023-05-10T00:10:02;28.80;27.66
69598;SHT31;70000;51.176;-115.568;2023-05-10T00:12:31;27.94;28.17
69598;SHT31;70000;51.176;-115.568;2023-05-10T00:15:01;27.11;28.82
69598;SHT31;70000;51.176;-115.568;2023-05-10T00:17:31;26.22;29.65
69598;SHT31;70000;51.176;-115.568;2023-05-10T00:20:00;25.34;30.26
69598;SHT31;70000;51.176;-115.568;2023-05-10T00:22:32;24.50;30.84
69598;SHT31;70000;51.176;-115.568;2023-05-10T00:25:05;24.04;31.08
69598;SHT31;70000;51.176;-115.568;2023-05-10T00:27:35;23.93;31.48
69598;SHT31;70000;51.176;-115.568;2023-05-10T00:30:04;23.31;31.79
69598;SHT31;70000;51.176;-115.568;2023-05-10T00:32:34;22.56;32.56
69598;SHT31;70000;51.176;-115.568;2023-05-10T00:35:03;21.74;33.50
69598;SHT31;70000;51.176;-115.568;2023-05-10T00:37:33;21.20;34.42
69598;SHT31;70000;51.176;-115.568;2023-05-10T00:40:02;20.69;34.68
69598;SHT31;70000;51.176;-115.568;2023-05-10T00:42:32;20.04;34.85
69598;SHT31;70000;51.176;-115.568;2023-05-10T00:45:01;19.57;35.41
69598;SHT31;70000;51.176;-115.568;2023-05-10T00:47:31;18.94;36.30
69598;SHT31;70000;51.176;-115.568;2023-05-10T00:50:01;18.37;37.98
69598;SHT31;70000;51.176;-115.568;2023-05-10T00:52:30;17.98;38.77
69598;SHT31;70000;51.176;-115.568;2023-05-10T00:55:00;17.53;39.26
69598;SHT31;70000;51.176;-115.568;2023-05-10T00:57:30;17.15;40.06
69598;SHT31;70000;51.176;-115.568;2023-05-10T01:00:00;16.85;40.94
69598;SHT31;70000;51.176;-115.568;2023-05-10T01:02:30;16.61;41.78
69598;SHT31;70000;51.176;-115.568;2023-05-10T01:05:02;16.45;42.32
69598;SHT31;70000;51.176;-115.568;2023-05-10T01:07:32;16.37;42.64
69598;SHT31;70000;51.176;-115.568;2023-05-10T01:10:01;16.48;42.99
69598;SHT31;70000;51.176;-115.568;2023-05-10T01:12:31;16.61;42.63
69598;SHT31;70000;51.176;-115.568;2023-05-10T01:15:01;16.62;42.68
69598;SHT31;70000;51.176;-115.568;2023-05-10T01:17:33;16.55;42.96
69598;SHT31;70000;51.176;-115.568;2023-05-10T01:20:06;16.43;43.17
69598;SHT31;70000;51.176;-115.568;2023-05-10T01:26:03;15.97;43.93
69598;SHT31;70000;51.176;-115.568;2023-05-10T01:29:14;15.76;44.23
69598;SHT31;70000;51.176;-115.568;2023-05-10T01:35:56;15.14;45.89
69598;SHT31;70000;51.176;-115.568;2023-05-10T01:47:14;14.06;49.41
69598;SHT31;70000;51.176;-115.568;2023-05-10T01:49:54;13.82;50.37
69598;SHT31;70000;51.176;-115.568;2023-05-10T01:52:36;13.62;51.41
69598;SHT31;70000;51.176;-115.568;2023-05-10T01:55:13;13.41;54.70
69598;SHT31;70000;51.176;-115.568;2023-05-10T01:57:51;13.25;56.83
69598;SHT31;70000;51.176;-115.568;2023-05-10T02:00:43;13.14;56.79
69598;SHT31;70000;51.176;-115.568;2023-05-10T02:03:15;12.99;56.27
69598;SHT31;70000;51.176;-115.568;2023-05-10T02:05:48;12.77;56.35
69598;SHT31;70000;51.176;-115.568;2023-05-10T02:08:21;12.56;57.78
69598;SHT31;70000;51.176;-115.568;2023-05-10T02:10:52;12.48;58.82
69598;SHT31;70000;51.176;-115.568;2023-05-10T02:13:24;12.47;60.61
69598;SHT31;70000;51.176;-115.568;2023-05-10T02:15:57;12.38;60.31
69598;SHT31;70000;51.176;-115.568;2023-05-10T02:18:29;12.29;59.99
69598;SHT31;70000;51.176;-115.568;2023-05-10T02:21:01;12.11;59.49
69598;SHT31;70000;51.176;-115.568;2023-05-10T02:23:31;11.98;58.48
69598;SHT31;70000;51.176;-115.568;2023-05-10T02:26:02;11.79;58.88
69598;SHT31;70000;51.176;-115.568;2023-05-10T02:28:37;11.70;59.28
69598;SHT31;70000;51.176;-115.568;2023-05-10T02:31:08;11.60;60.11
69598;SHT31;70000;51.176;-115.568;2023-05-10T02:33:39;11.51;60.35
69598;SHT31;70000;51.176;-115.568;2023-05-10T02:36:10;11.44;60.29
69598;SHT31;70000;51.176;-115.568;2023-05-10T02:38:42;11.40;60.07
69598;SHT31;70000;51.176;-115.568;2023-05-10T02:41:13;11.32;60.04
69598;SHT31;70000;51.176;-115.568;2023-05-10T02:43:43;11.21;60.03
69598;SHT31;70000;51.176;-115.568;2023-05-10T02:46:14;11.05;60.07
69598;SHT31;70000;51.176;-115.568;2023-05-10T02:48:43;10.77;60.92
69598;SHT31;70000;51.176;-115.568;2023-05-10T02:51:13;10.60;61.69
69598;SHT31;70000;51.176;-115.568;2023-05-10T02:53:46;10.52;61.99
69598;SHT31;70000;51.176;-115.568;2023-05-10T02:56:25;10.45;61.90
69598;SHT31;70000;51.176;-115.568;2023-05-10T02:59:02;10.30;62.20
69598;SHT31;70000;51.176;-115.568;2023-05-10T03:01:32;10.26;62.15
69598;SHT31;70000;51.176;-115.568;2023-05-10T03:04:10;10.18;62.34
69598;SHT31;70000;51.176;-115.568;2023-05-10T03:06:39;10.12;62.77
69598;SHT31;70000;51.176;-115.568;2023-05-10T03:09:10;10.07;63.06
69598;SHT31;70000;51.176;-115.568;2023-05-10T03:14:49;9.95;62.77
69598;SHT31;70000;51.176;-115.568;2023-05-10T03:18:03;9.78;62.74
69598;SHT31;70000;51.176;-115.568;2023-05-10T03:20:41;9.76;63.11
69598;SHT31;70000;51.176;-115.568;2023-05-10T03:26:15;9.71;63.32
69598;SHT31;70000;51.176;-115.568;2023-05-10T03:28:52;9.69;63.53
69598;SHT31;70000;51.176;-115.568;2023-05-10T03:31:23;9.69;63.31
69598;SHT31;70000;51.176;-115.568;2023-05-10T03:33:52;9.65;63.15
69598;SHT31;70000;51.176;-115.568;2023-05-10T03:36:22;9.63;63.37
69598;SHT31;70000;51.176;-115.568;2023-05-10T03:38:54;9.62;63.84
69598;SHT31;70000;51.176;-115.568;2023-05-10T03:41:23;9.62;63.48
69598;SHT31;70000;51.176;-115.568;2023-05-10T03:43:53;9.59;63.36
69598;SHT31;70000;51.176;-115.568;2023-05-10T03:46:28;9.50;63.88
69598;SHT31;70000;51.176;-115.568;2023-05-10T03:49:07;9.43;63.86
69598;SHT31;70000;51.176;-115.568;2023-05-10T03:51:59;9.34;63.79
69598;SHT31;70000;51.176;-115.568;2023-05-10T03:54:53;9.34;63.65
69598;SHT31;70000;51.176;-115.568;2023-05-10T03:57:33;9.31;64.15
69598;SHT31;70000;51.176;-115.568;2023-05-10T04:00:37;9.24;64.58
69598;SHT31;70000;51.176;-115.568;2023-05-10T04:03:15;9.23;64.64
69598;SHT31;70000;51.176;-115.568;2023-05-10T04:06:01;9.20;64.95
69598;SHT31;70000;51.176;-115.568;2023-05-10T04:08:38;9.19;65.55
69598;SHT31;70000;51.176;-115.568;2023-05-10T04:11:08;9.19;65.60
69598;SHT31;70000;51.176;-115.568;2023-05-10T04:13:46;9.22;65.14
69598;SHT31;70000;51.176;-115.568;2023-05-10T04:16:21;9.20;64.46
69598;SHT31;70000;51.176;-115.568;2023-05-10T04:18:57;9.15;64.54
69598;SHT31;70000;51.176;-115.568;2023-05-10T04:21:27;9.15;64.93
69598;SHT31;70000;51.176;-115.568;2023-05-10T04:24:00;9.05;64.66
69598;SHT31;70000;51.176;-115.568;2023-05-10T04:26:35;9.05;64.96
69598;SHT31;70000;51.176;-115.568;2023-05-10T04:29:16;9.06;65.19
69598;SHT31;70000;51.176;-115.568;2023-05-10T04:31:53;9.03;65.54
69598;SHT31;70000;51.176;-115.568;2023-05-10T04:34:36;9.00;65.40
69598;SHT31;70000;51.176;-115.568;2023-05-10T04:37:10;8.99;65.70
69598;SHT31;70000;51.176;-115.568;2023-05-10T04:39:42;8.93;65.86
69598;SHT31;70000;51.176;-115.568;2023-05-10T04:42:49;8.91;65.89
69598;SHT31;70000;51.176;-115.568;2023-05-10T04:45:33;8.90;65.56
69598;SHT31;70000;51.176;-115.568;2023-05-10T04:48:12;8.85;65.92
69598;SHT31;70000;51.176;-115.568;2023-05-10T04:50:59;8.84;66.19
69598;SHT31;70000;51.176;-115.568;2023-05-10T04:53:38;8.84;66.25
69598;SHT31;70000;51.176;-115.568;2023-05-10T05:07:14;8.81;66.35
69598;SHT31;70000;51.176;-115.568;2023-05-10T05:09:46;8.79;66.37
69598;SHT31;70000;51.176;-115.568;2023-05-10T05:12:14;8.78;66.59
69598;SHT31;70000;51.176;-115.568;2023-05-10T05:14:44;8.77;66.51
69598;SHT31;70000;51.176;-115.568;2023-05-10T05:17:13;8.77;66.47
69598;SHT31;70000;51.176;-115.568;2023-05-10T05:19:43;8.76;66.20
69598;SHT31;70000;51.176;-115.568;2023-05-10T05:22:12;8.72;66.15
69598;SHT31;70000;51.176;-115.568;2023-05-10T05:24:55;8.67;66.00
69598;SHT31;70000;51.176;-115.568;2023-05-10T05:27:30;8.64;65.95
69598;SHT31;70000;51.176;-115.568;2023-05-10T05:30:02;8.62;66.09
69598;SHT31;70000;51.176;-115.568;2023-05-10T05:32:32;8.60;66.21
69598;SHT31;70000;51.176;-115.568;2023-05-10T05:35:02;8.56;65.98
69598;SHT31;70000;51.176;-115.568;2023-05-10T05:37:32;8.52;66.17
69598;SHT31;70000;51.176;-115.568;2023-05-10T05:40:02;8.52;66.29
69598;SHT31;70000;51.176;-115.568;2023-05-10T05:42:33;8.51;66.27
69598;SHT31;70000;51.176;-115.568;2023-05-10T05:45:02;8.49;66.31
69598;SHT31;70000;51.176;-115.568;2023-05-10T05:47:31;8.45;66.28
69598;SHT31;70000;51.176;-115.568;2023-05-10T05:50:01;8.40;66.38
69598;SHT31;70000;51.176;-115.568;2023-05-10T05:52:30;8.33;66.33
69598;SHT31;70000;51.176;-115.568;2023-05-10T05:55:00;8.31;66.29
69598;SHT31;70000;51.176;-115.568;2023-05-10T05:57:30;8.31;66.18
69598;SHT31;70000;51.176;-115.568;2023-05-10T05:59:59;8.25;66.28
69598;SHT31;70000;51.176;-115.568;2023-05-10T06:02:34;8.21;66.53
69598;SHT31;70000;51.176;-115.568;2023-05-10T06:05:04;8.18;66.55
69598;SHT31;70000;51.176;-115.568;2023-05-10T06:07:34;8.16;66.56
69598;SHT31;70000;51.176;-115.568;2023-05-10T06:10:07;8.14;66.77
69598;SHT31;70000;51.176;-115.568;2023-05-10T06:12:37;8.12;66.73
69598;SHT31;70000;51.176;-115.568;2023-05-10T06:15:07;8.10;66.75
69598;SHT31;70000;51.176;-115.568;2023-05-10T06:17:41;8.07;67.02
69598;SHT31;70000;51.176;-115.568;2023-05-10T06:20:12;8.02;67.20
69598;SHT31;70000;51.176;-115.568;2023-05-10T06:22:50;8.00;67.19
69598;SHT31;70000;51.176;-115.568;2023-05-10T06:25:20;7.98;67.26
69598;SHT31;70000;51.176;-115.568;2023-05-10T06:27:50;7.96;67.12
69598;SHT31;70000;51.176;-115.568;2023-05-10T06:30:24;7.91;67.33
69598;SHT31;70000;51.176;-115.568;2023-05-10T06:32:56;7.86;67.53
69598;SHT31;70000;51.176;-115.568;2023-05-10T06:35:25;7.85;67.62
69598;SHT31;70000;51.176;-115.568;2023-05-10T06:37:58;7.81;67.58
69598;SHT31;70000;51.176;-115.568;2023-05-10T06:40:28;7.79;67.53
69598;SHT31;70000;51.176;-115.568;2023-05-10T06:42:57;7.75;67.66
69598;SHT31;70000;51.176;-115.568;2023-05-10T06:45:27;7.73;67.78
69598;SHT31;70000;51.176;-115.568;2023-05-10T06:47:57;7.72;67.88
69598;SHT31;70000;51.176;-115.568;2023-05-10T06:50:30;7.72;67.88
69598;SHT31;70000;51.176;-115.568;2023-05-10T06:53:00;7.68;67.83
69598;SHT31;70000;51.176;-115.568;2023-05-10T06:55:32;7.66;67.94
69598;SHT31;70000;51.176;-115.568;2023-05-10T06:58:01;7.63;68.06
69598;SHT31;70000;51.176;-115.568;2023-05-10T07:00:53;7.63;68.17
69598;SHT31;70000;51.176;-115.568;2023-05-10T07:03:29;7.63;68.17
69598;SHT31;70000;51.176;-115.568;2023-05-10T07:06:03;7.61;68.26
69598;SHT31;70000;51.176;-115.568;2023-05-10T07:08:44;7.60;68.39
69598;SHT31;70000;51.176;-115.568;2023-05-10T07:11:14;7.61;68.45
69598;SHT31;70000;51.176;-115.568;2023-05-10T07:13:43;7.59;68.28
69598;SHT31;70000;51.176;-115.568;2023-05-10T07:16:13;7.60;68.16
69598;SHT31;70000;51.176;-115.568;2023-05-10T07:18:46;7.58;68.14
69598;SHT31;70000;51.176;-115.568;2023-05-10T07:21:16;7.55;68.29
69598;SHT31;70000;51.176;-115.568;2023-05-10T07:23:45;7.53;68.30
69598;SHT31;70000;51.176;-115.568;2023-05-10T07:26:15;7.52;68.29
69598;SHT31;70000;51.176;-115.568;2023-05-10T07:28:53;7.49;68.28
69598;SHT31;70000;51.176;-115.568;2023-05-10T07:31:25;7.46;68.40
69598;SHT31;70000;51.176;-115.568;2023-05-10T07:33:58;7.43;68.26
69598;SHT31;70000;51.176;-115.568;2023-05-10T07:36:28;7.40;68.35
69598;SHT31;70000;51.176;-115.568;2023-05-10T07:39:06;7.35;68.45
69598;SHT31;70000;51.176;-115.568;2023-05-10T07:41:40;7.31;68.49
69598;SHT31;70000;51.176;-115.568;2023-05-10T07:44:09;7.29;68.61
69598;SHT31;70000;51.176;-115.568;2023-05-10T07:46:48;7.26;68.42
69598;SHT31;70000;51.176;-115.568;2023-05-10T07:49:21;7.21;68.55
69598;SHT31;70000;51.176;-115.568;2023-05-10T07:51:51;7.16;68.68
69598;SHT31;70000;51.176;-115.568;2023-05-10T07:54:20;7.09;68.83
69598;SHT31;70000;51.176;-115.568;2023-05-10T07:56:50;7.02;69.08
69598;SHT31;70000;51.176;-115.568;2023-05-10T07:59:19;6.98;69.32
69598;SHT31;70000;51.176;-115.568;2023-05-10T08:01:51;6.99;69.39
69598;SHT31;70000;51.176;-115.568;2023-05-10T08:04:20;7.02;69.34
69598;SHT31;70000;51.176;-115.568;2023-05-10T08:06:49;7.06;69.17
69598;SHT31;70000;51.176;-115.568;2023-05-10T08:09:18;7.07;69.21
69598;SHT31;70000;51.176;-115.568;2023-05-10T08:11:51;7.09;69.32
69598;SHT31;70000;51.176;-115.568;2023-05-10T08:14:20;7.10;69.43
69598;SHT31;70000;51.176;-115.568;2023-05-10T08:16:49;7.13;69.51
69598;SHT31;70000;51.176;-115.568;2023-05-10T08:19:18;7.14;69.42
69598;SHT31;70000;51.176;-115.568;2023-05-10T08:21:48;7.14;69.36
69598;SHT31;70000;51.176;-115.568;2023-05-10T08:24:17;7.18;69.44
69598;SHT31;70000;51.176;-115.568;2023-05-10T08:26:46;7.17;69.30
69598;SHT31;70000;51.176;-115.568;2023-05-10T08:29:16;7.19;69.27
69598;SHT31;70000;51.176;-115.568;2023-05-10T08:31:45;7.21;69.08
69598;SHT31;70000;51.176;-115.568;2023-05-10T08:34:15;7.23;69.16
69598;SHT31;70000;51.176;-115.568;2023-05-10T08:36:44;7.24;69.20
69598;SHT31;70000;51.176;-115.568;2023-05-10T08:39:13;7.27;69.07
69598;SHT31;70000;51.176;-115.568;2023-05-10T08:41:55;7.27;68.95
69598;SHT31;70000;51.176;-115.568;2023-05-10T08:44:34;7.26;68.85
69598;SHT31;70000;51.176;-115.568;2023-05-10T08:47:04;7.28;68.86
69598;SHT31;70000;51.176;-115.568;2023-05-10T08:49:38;7.28;68.68
69598;SHT31;70000;51.176;-115.568;2023-05-10T08:52:08;7.25;68.63
69598;SHT31;70000;51.176;-115.568;2023-05-10T08:54:42;7.26;68.57
69598;SHT31;70000;51.176;-115.568;2023-05-10T08:57:15;7.23;68.77
69598;SHT31;70000;51.176;-115.568;2023-05-10T08:59:44;7.23;68.86
69598;SHT31;70000;51.176;-115.568;2023-05-10T09:02:14;7.21;68.80
69598;SHT31;70000;51.176;-115.568;2023-05-10T09:04:46;7.20;68.89
69598;SHT31;70000;51.176;-115.568;2023-05-10T09:07:16;7.21;68.90
69598;SHT31;70000;51.176;-115.568;2023-05-10T09:09:46;7.20;68.97
69598;SHT31;70000;51.176;-115.568;2023-05-10T09:12:19;7.19;69.14
69598;SHT31;70000;51.176;-115.568;2023-05-10T09:14:49;7.18;68.91
69598;SHT31;70000;51.176;-115.568;2023-05-10T09:17:22;7.19;68.86
69598;SHT31;70000;51.176;-115.568;2023-05-10T09:20:05;7.20;68.79
69598;SHT31;70000;51.176;-115.568;2023-05-10T09:22:34;7.23;68.67
69598;SHT31;70000;51.176;-115.568;2023-05-10T09:25:15;7.22;68.77
69598;SHT31;70000;51.176;-115.568;2023-05-10T09:27:45;7.22;68.71
69598;SHT31;70000;51.176;-115.568;2023-05-10T09:30:16;7.22;68.61
69598;SHT31;70000;51.176;-115.568;2023-05-10T09:32:53;7.21;68.73
69598;SHT31;70000;51.176;-115.568;2023-05-10T09:35:25;7.19;68.88
69598;SHT31;70000;51.176;-115.568;2023-05-10T09:37:57;7.22;68.81
69598;SHT31;70000;51.176;-115.568;2023-05-10T09:40:32;7.22;68.90
69598;SHT31;70000;51.176;-115.568;2023-05-10T09:43:07;7.19;68.95
69598;SHT31;70000;51.176;-115.568;2023-05-10T09:45:38;7.19;68.92
69598;SHT31;70000;51.176;-115.568;2023-05-10T09:48:10;7.16;68.81
69598;SHT31;70000;51.176;-115.568;2023-05-10T09:50:56;7.14;68.61
69598;SHT31;70000;51.176;-115.568;2023-05-10T09:53:25;7.14;68.82
69598;SHT31;70000;51.176;-115.568;2023-05-10T09:55:55;7.12;68.90
69598;SHT31;70000;51.176;-115.568;2023-05-10T09:58:24;7.11;68.81
69598;SHT31;70000;51.176;-115.568;2023-05-10T10:00:55;7.11;68.95
69598;SHT31;70000;51.176;-115.568;2023-05-10T10:03:25;7.10;69.04
69598;SHT31;70000;51.176;-115.568;2023-05-10T10:05:55;7.09;68.96
69598;SHT31;70000;51.176;-115.568;2023-05-10T10:08:25;7.09;69.03
69598;SHT31;70000;51.176;-115.568;2023-05-10T10:10:58;7.10;69.23
69598;SHT31;70000;51.176;-115.568;2023-05-10T10:13:27;7.12;69.04
69598;SHT31;70000;51.176;-115.568;2023-05-10T10:15:59;7.17;68.56
69598;SHT31;70000;51.176;-115.568;2023-05-10T10:18:28;7.20;68.69
69598;SHT31;70000;51.176;-115.568;2023-05-10T10:20:59;7.22;68.89
69598;SHT31;70000;51.176;-115.568;2023-05-10T10:23:33;7.18;68.79
69598;SHT31;70000;51.176;-115.568;2023-05-10T10:26:03;7.14;68.81
69598;SHT31;70000;51.176;-115.568;2023-05-10T10:34:55;7.08;69.08
69598;SHT31;70000;51.176;-115.568;2023-05-10T10:37:40;7.08;69.03
69598;SHT31;70000;51.176;-115.568;2023-05-10T10:43:23;7.05;69.35
69598;SHT31;70000;51.176;-115.568;2023-05-10T10:46:14;7.02;69.19
69598;SHT31;70000;51.176;-115.568;2023-05-10T10:51:38;6.99;69.44
69598;SHT31;70000;51.176;-115.568;2023-05-10T10:54:08;7.00;69.52
69598;SHT31;70000;51.176;-115.568;2023-05-10T10:56:38;6.99;69.41
69598;SHT31;70000;51.176;-115.568;2023-05-10T10:59:10;6.98;69.32
69598;SHT31;70000;51.176;-115.568;2023-05-10T11:01:39;6.98;69.39
69598;SHT31;70000;51.176;-115.568;2023-05-10T11:06:41;7.00;69.34
69598;SHT31;70000;51.176;-115.568;2023-05-10T11:09:14;7.01;69.21
69598;SHT31;70000;51.176;-115.568;2023-05-10T11:11:53;7.03;68.99
69598;SHT31;70000;51.176;-115.568;2023-05-10T11:14:23;7.02;69.33
69598;SHT31;70000;51.176;-115.568;2023-05-10T11:16:59;7.02;69.31
69598;SHT31;70000;51.176;-115.568;2023-05-10T11:19:30;7.05;69.50
69598;SHT31;70000;51.176;-115.568;2023-05-10T11:24:33;7.07;69.74
69598;SHT31;70000;51.176;-115.568;2023-05-10T11:27:03;7.05;69.62
69598;SHT31;70000;51.176;-115.568;2023-05-10T11:29:33;7.04;69.96
69598;SHT31;70000;51.176;-115.568;2023-05-10T11:32:02;7.02;70.11
69598;SHT31;70000;51.176;-115.568;2023-05-10T11:34:35;7.04;70.11
69598;SHT31;70000;51.176;-115.568;2023-05-10T11:37:04;7.02;70.23
69598;SHT31;70000;51.176;-115.568;2023-05-10T11:39:33;7.00;70.36
69598;SHT31;70000;51.176;-115.568;2023-05-10T11:42:03;7.01;70.14
69598;SHT31;70000;51.176;-115.568;2023-05-10T11:44:32;7.01;70.13
69598;SHT31;70000;51.176;-115.568;2023-05-10T11:47:01;6.97;70.51
69598;SHT31;70000;51.176;-115.568;2023-05-10T11:49:31;6.95;70.53
69598;SHT31;70000;51.176;-115.568;2023-05-10T11:52:06;6.94;70.53
69598;SHT31;70000;51.176;-115.568;2023-05-10T11:54:36;6.92;70.55
69598;SHT31;70000;51.176;-115.568;2023-05-10T11:57:05;6.93;70.65
69598;SHT31;70000;51.176;-115.568;2023-05-10T11:59:34;6.92;70.59
69598;SHT31;70000;51.176;-115.568;2023-05-10T12:02:07;6.95;70.29
69598;SHT31;70000;51.176;-115.568;2023-05-10T12:04:36;6.94;70.27
69598;SHT31;70000;51.176;-115.568;2023-05-10T12:07:05;6.91;70.36
69598;SHT31;70000;51.176;-115.568;2023-05-10T12:09:34;6.86;70.48
69598;SHT31;70000;51.176;-115.568;2023-05-10T12:12:23;6.86;70.84
69598;SHT31;70000;51.176;-115.568;2023-05-10T12:14:52;6.89;70.42
69598;SHT31;70000;51.176;-115.568;2023-05-10T12:17:21;6.88;70.41
69598;SHT31;70000;51.176;-115.568;2023-05-10T12:19:58;6.81;70.69
69598;SHT31;70000;51.176;-115.568;2023-05-10T12:22:52;6.78;70.81
69598;SHT31;70000;51.176;-115.568;2023-05-10T12:25:29;6.77;70.51
69598;SHT31;70000;51.176;-115.568;2023-05-10T12:28:02;6.77;70.68
69598;SHT31;70000;51.176;-115.568;2023-05-10T12:30:34;6.75;70.92
69598;SHT31;70000;51.176;-115.568;2023-05-10T12:33:09;6.77;70.99
69598;SHT31;70000;51.176;-115.568;2023-05-10T12:35:53;6.78;70.94
69598;SHT31;70000;51.176;-115.568;2023-05-10T12:41:04;6.77;70.43
69598;SHT31;70000;51.176;-115.568;2023-05-10T12:43:36;6.75;70.65
69598;SHT31;70000;51.176;-115.568;2023-05-10T12:46:07;6.73;70.77
69598;SHT31;70000;51.176;-115.568;2023-05-10T12:48:38;6.72;70.79
69598;SHT31;70000;51.176;-115.568;2023-05-10T12:51:09;6.72;70.95
69598;SHT31;70000;51.176;-115.568;2023-05-10T12:53:40;6.71;71.16
69598;SHT31;70000;51.176;-115.568;2023-05-10T12:56:13;6.72;71.15
69598;SHT31;70000;51.176;-115.568;2023-05-10T12:58:45;6.75;71.17
69598;SHT31;70000;51.176;-115.568;2023-05-10T13:01:15;6.77;71.20
69598;SHT31;70000;51.176;-115.568;2023-05-10T13:03:44;6.78;71.15
69598;SHT31;70000;51.176;-115.568;2023-05-10T13:06:14;6.78;71.13
69598;SHT31;70000;51.176;-115.568;2023-05-10T13:08:43;6.80;71.23
69598;SHT31;70000;51.176;-115.568;2023-05-10T13:11:12;6.84;71.20
69598;SHT31;70000;51.176;-115.568;2023-05-10T13:13:45;6.86;71.11
69598;SHT31;70000;51.176;-115.568;2023-05-10T13:16:14;6.88;71.05
69598;SHT31;70000;51.176;-115.568;2023-05-10T13:18:44;6.90;70.99
69598;SHT31;70000;51.176;-115.568;2023-05-10T13:21:13;6.95;70.79
69598;SHT31;70000;51.176;-115.568;2023-05-10T13:23:42;6.99;70.61
69598;SHT31;70000;51.176;-115.568;2023-05-10T13:26:11;7.00;70.84
69598;SHT31;70000;51.176;-115.568;2023-05-10T13:28:40;7.02;70.61
69598;SHT31;70000;51.176;-115.568;2023-05-10T13:31:09;7.01;70.47
69598;SHT31;70000;51.176;-115.568;2023-05-10T13:33:38;6.99;70.44
69598;SHT31;70000;51.176;-115.568;2023-05-10T13:36:07;7.00;70.55
69598;SHT31;70000;51.176;-115.568;2023-05-10T13:38:36;6.99;70.73
69598;SHT31;70000;51.176;-115.568;2023-05-10T13:41:06;7.04;70.61
69598;SHT31;70000;51.176;-115.568;2023-05-10T13:43:35;7.08;70.52
69598;SHT31;70000;51.176;-115.568;2023-05-10T13:46:07;7.09;70.66
69598;SHT31;70000;51.176;-115.568;2023-05-10T13:48:36;7.13;70.61
69598;SHT31;70000;51.176;-115.568;2023-05-10T13:51:05;7.15;70.83
69598;SHT31;70000;51.176;-115.568;2023-05-10T13:53:34;7.17;70.93
69598;SHT31;70000;51.176;-115.568;2023-05-10T13:56:04;7.24;70.69
69598;SHT31;70000;51.176;-115.568;2023-05-10T13:58:34;7.26;70.95
69598;SHT31;70000;51.176;-115.568;2023-05-10T14:01:04;7.29;71.12
69598;SHT31;70000;51.176;-115.568;2023-05-10T14:03:34;7.32;71.29
69598;SHT31;70000;51.176;-115.568;2023-05-10T14:06:03;7.34;71.22
69598;SHT31;70000;51.176;-115.568;2023-05-10T14:08:32;7.39;71.20
69598;SHT31;70000;51.176;-115.568;2023-05-10T14:11:03;7.43;71.03
69598;SHT31;70000;51.176;-115.568;2023-05-10T14:13:36;7.46;70.76
69598;SHT31;70000;51.176;-115.568;2023-05-10T14:16:05;7.49;70.54
69598;SHT31;70000;51.176;-115.568;2023-05-10T14:18:34;7.57;70.56
69598;SHT31;70000;51.176;-115.568;2023-05-10T14:21:03;7.65;70.60
69598;SHT31;70000;51.176;-115.568;2023-05-10T14:23:34;7.74;70.60
69598;SHT31;70000;51.176;-115.568;2023-05-10T14:26:04;7.81;70.38
69598;SHT31;70000;51.176;-115.568;2023-05-10T14:28:33;7.87;70.27
69598;SHT31;70000;51.176;-115.568;2023-05-10T14:31:05;7.92;70.18
69598;SHT31;70000;51.176;-115.568;2023-05-10T14:33:34;8.00;70.06
69598;SHT31;70000;51.176;-115.568;2023-05-10T14:36:03;8.08;70.13
69598;SHT31;70000;51.176;-115.568;2023-05-10T14:38:32;8.17;69.89
69598;SHT31;70000;51.176;-115.568;2023-05-10T14:41:01;8.29;70.02
69598;SHT31;70000;51.176;-115.568;2023-05-10T14:43:30;8.41;69.62
69598;SHT31;70000;51.176;-115.568;2023-05-10T14:45:59;8.52;69.65
69598;SHT31;70000;51.176;-115.568;2023-05-10T14:48:28;8.67;69.49
69598;SHT31;70000;51.176;-115.568;2023-05-10T14:50:57;8.79;69.00
69598;SHT31;70000;51.176;-115.568;2023-05-10T14:53:29;8.90;68.76
69598;SHT31;70000;51.176;-115.568;2023-05-10T14:56:00;8.98;68.49
69598;SHT31;70000;51.176;-115.568;2023-05-10T14:58:30;9.06;68.63
69598;SHT31;70000;51.176;-115.568;2023-05-10T15:00:59;9.17;68.43
69598;SHT31;70000;51.176;-115.568;2023-05-10T15:03:29;9.26;68.33
69598;SHT31;70000;51.176;-115.568;2023-05-10T15:05:58;9.35;68.18
69598;SHT31;70000;51.176;-115.568;2023-05-10T15:08:27;9.38;67.56
69598;SHT31;70000;51.176;-115.568;2023-05-10T15:10:56;9.41;67.73
69598;SHT31;70000;51.176;-115.568;2023-05-10T15:13:25;9.48;67.39
69598;SHT31;70000;51.176;-115.568;2023-05-10T15:15:54;9.53;67.52
69598;SHT31;70000;51.176;-115.568;2023-05-10T15:18:23;9.55;67.28
69598;SHT31;70000;51.176;-115.568;2023-05-10T15:20:52;9.57;67.09
69598;SHT31;70000;51.176;-115.568;2023-05-10T15:23:21;9.58;66.70
69598;SHT31;70000;51.176;-115.568;2023-05-10T15:25:50;9.60;66.80
69598;SHT31;70000;51.176;-115.568;2023-05-10T15:28:23;9.63;66.35
69598;SHT31;70000;51.176;-115.568;2023-05-10T15:30:53;9.62;65.69
69598;SHT31;70000;51.176;-115.568;2023-05-10T15:33:25;9.62;65.69
69598;SHT31;70000;51.176;-115.568;2023-05-10T15:35:55;9.64;65.57
69598;SHT31;70000;51.176;-115.568;2023-05-10T15:38:24;9.65;65.37
69598;SHT31;70000;51.176;-115.568;2023-05-10T15:40:55;9.63;65.26
69598;SHT31;70000;51.176;-115.568;2023-05-10T15:43:26;9.60;65.26
69598;SHT31;70000;51.176;-115.568;2023-05-10T15:45:55;9.60;65.46
69598;SHT31;70000;51.176;-115.568;2023-05-10T15:48:24;9.67;65.05
69598;SHT31;70000;51.176;-115.568;2023-05-10T15:50:55;9.73;64.60
69598;SHT31;70000;51.176;-115.568;2023-05-10T15:53:24;9.74;64.67
69598;SHT31;70000;51.176;-115.568;2023-05-10T15:55:53;9.78;64.75
69598;SHT31;70000;51.176;-115.568;2023-05-10T15:58:22;9.83;64.61
69598;SHT31;70000;51.176;-115.568;2023-05-10T16:00:51;9.89;64.42
69598;SHT31;70000;51.176;-115.568;2023-05-10T16:03:20;10.02;64.82
69598;SHT31;70000;51.176;-115.568;2023-05-10T16:05:49;10.11;64.57
69598;SHT31;70000;51.176;-115.568;2023-05-10T16:08:18;10.26;65.76
69598;SHT31;70000;51.176;-115.568;2023-05-10T16:10:48;10.44;65.77
69598;SHT31;70000;51.176;-115.568;2023-05-10T16:13:19;10.64;65.79
69598;SHT31;70000;51.176;-115.568;2023-05-10T16:15:49;10.83;65.51
69598;SHT31;70000;51.176;-115.568;2023-05-10T16:18:18;11.02;64.96
69598;SHT31;70000;51.176;-115.568;2023-05-10T16:20:47;11.28;65.47